sensor_id;sensor_type;location;lat;lon;timestamp;pressure;altitude;pressure_sealevel;temperature;humidity
51289;BME280;37372;52.294;5.152;2023-04-25T00:00:04;101113.06;;;5.03;88.71
51289;BME280;37372;52.294;5.152;2023-04-25T00:02:35;101110.81;;;5.06;89.47
51289;BME280;37372;52.294;5.152;2023-04-25T00:05:04;101117.63;;;5.02;89.52
51289;BME280;37372;52.294;5.152;2023-04-25T00:07:41;101113.63;;;4.98;89.14
51289;BME280;37372;52.294;5.152;2023-04-25T00:10:12;101115.31;;;4.99;89.64
51289;BME280;37372;52.294;5.152;2023-04-25T00:12:38;101113.31;;;5.08;90.49
51289;BME280;37372;52.294;5.152;2023-04-25T00:15:04;101109.31;;;5.04;90.09
51289;BME280;37372;52.294;5.152;2023-04-25T00:17:37;101112.03;;;5.04;90.17
51289;BME280;37372;52.294;5.152;2023-04-25T00:20:16;101114.75;;;5.04;90.60
51289;BME280;37372;52.294;5.152;2023-04-25T00:22:42;101113.22;;;5.01;91.36
51289;BME280;37372;52.294;5.152;2023-04-25T00:25:07;101120.47;;;4.94;90.72
51289;BME280;37372;52.294;5.152;2023-04-25T00:27:36;101124.41;;;4.92;90.76
51289;BME280;37372;52.294;5.152;2023-04-25T00:30:17;101115.88;;;4.95;90.69
51289;BME280;37372;52.294;5.152;2023-04-25T00:32:43;101122.72;;;4.91;90.37
51289;BME280;37372;52.294;5.152;2023-04-25T00:35:09;101126.28;;;4.91;90.55
51289;BME280;37372;52.294;5.152;2023-04-25T00:37:38;101123.56;;;4.91;90.42
51289;BME280;37372;52.294;5.152;2023-04-25T00:40:30;101132.91;;;4.88;89.87
51289;BME280;37372;52.294;5.152;2023-04-25T00:42:55;101127.31;;;4.90;89.48
51289;BME280;37372;52.294;5.152;2023-04-25T00:45:27;101137.06;;;4.84;88.19
51289;BME280;37372;52.294;5.152;2023-04-25T00:47:55;101137.06;;;4.84;89.04
51289;BME280;37372;52.294;5.152;2023-04-25T00:50:34;101142.84;;;4.81;89.00
51289;BME280;37372;52.294;5.152;2023-04-25T00:53:01;101130.69;;;4.77;88.86
51289;BME280;37372;52.294;5.152;2023-04-25T00:55:30;101132.56;;;4.77;88.20
51289;BME280;37372;52.294;5.152;2023-04-25T00:58:05;101133.56;;;4.76;87.48
51289;BME280;37372;52.294;5.152;2023-04-25T01:00:34;101130.38;;;4.72;87.76
51289;BME280;37372;52.294;5.152;2023-04-25T01:03:00;101136.66;;;4.73;88.18
51289;BME280;37372;52.294;5.152;2023-04-25T01:05:27;101133.84;;;4.66;87.32
51289;BME280;37372;52.294;5.152;2023-04-25T01:08:10;101139.81;;;4.61;87.99
51289;BME280;37372;52.294;5.152;2023-04-25T01:10:37;101130.53;;;4.56;86.51
51289;BME280;37372;52.294;5.152;2023-04-25T01:13:07;101135.81;;;4.57;86.19
51289;BME280;37372;52.294;5.152;2023-04-25T01:15:39;101137.50;;;4.58;87.46
51289;BME280;37372;52.294;5.152;2023-04-25T01:18:14;101136.16;;;4.54;87.14
51289;BME280;37372;52.294;5.152;2023-04-25T01:20:41;101137.19;;;4.53;87.38
51289;BME280;37372;52.294;5.152;2023-04-25T01:23:10;101137.56;;;4.50;87.40
51289;BME280;37372;52.294;5.152;2023-04-25T01:25:38;101138.28;;;4.44;87.30
51289;BME280;37372;52.294;5.152;2023-04-25T01:28:05;101147.34;;;4.37;87.67
51289;BME280;37372;52.294;5.152;2023-04-25T01:30:40;101146.28;;;4.23;87.84
51289;BME280;37372;52.294;5.152;2023-04-25T01:33:08;101153.97;;;4.19;88.10
51289;BME280;37372;52.294;5.152;2023-04-25T01:35:34;101147.25;;;4.07;88.71
51289;BME280;37372;52.294;5.152;2023-04-25T01:37:59;101150.63;;;4.09;89.12
51289;BME280;37372;52.294;5.152;2023-04-25T01:40:37;101146.88;;;4.10;88.97
51289;BME280;37372;52.294;5.152;2023-04-25T01:43:08;101156.06;;;4.09;89.18
51289;BME280;37372;52.294;5.152;2023-04-25T01:45:39;101154.84;;;4.12;88.99
51289;BME280;37372;52.294;5.152;2023-04-25T01:48:25;101160.00;;;4.06;88.78
51289;BME280;37372;52.294;5.152;2023-04-25T01:50:57;101153.03;;;4.04;87.51
51289;BME280;37372;52.294;5.152;2023-04-25T01:53:26;101157.94;;;4.08;88.26
51289;BME280;37372;52.294;5.152;2023-04-25T01:55:57;101156.78;;;4.03;87.97
51289;BME280;37372;52.294;5.152;2023-04-25T01:58:26;101159.38;;;3.96;87.94
51289;BME280;37372;52.294;5.152;2023-04-25T02:00:55;101165.66;;;3.97;88.68
51289;BME280;37372;52.294;5.152;2023-04-25T02:03:23;101164.81;;;3.96;88.65
51289;BME280;37372;52.294;5.152;2023-04-25T02:05:58;101169.88;;;3.99;88.50
51289;BME280;37372;52.294;5.152;2023-04-25T02:08:23;101174.94;;;4.02;88.69
51289;BME280;37372;52.294;5.152;2023-04-25T02:10:54;101176.63;;;4.03;88.95
51289;BME280;37372;52.294;5.152;2023-04-25T02:13:23;101167.13;;;4.07;88.42
51289;BME280;37372;52.294;5.152;2023-04-25T02:15:49;101176.88;;;4.17;88.92
51289;BME280;37372;52.294;5.152;2023-04-25T02:18:14;101171.94;;;4.20;89.16
51289;BME280;37372;52.294;5.152;2023-04-25T02:20:42;101169.03;;;4.22;88.42
51289;BME280;37372;52.294;5.152;2023-04-25T02:23:08;101173.56;;;4.29;88.30
51289;BME280;37372;52.294;5.152;2023-04-25T02:25:34;101168.63;;;4.33;88.04
51289;BME280;37372;52.294;5.152;2023-04-25T02:28:04;101178.78;;;4.31;88.19
51289;BME280;37372;52.294;5.152;2023-04-25T02:30:33;101167.59;;;4.34;88.45
51289;BME280;37372;52.294;5.152;2023-04-25T02:33:16;101170.66;;;4.31;88.21
51289;BME280;37372;52.294;5.152;2023-04-25T02:36:00;101172.25;;;4.25;88.19
51289;BME280;37372;52.294;5.152;2023-04-25T02:38:26;101174.66;;;4.20;88.57
51289;BME280;37372;52.294;5.152;2023-04-25T02:40:55;101179.59;;;4.17;87.41
51289;BME280;37372;52.294;5.152;2023-04-25T02:43:23;101179.28;;;4.12;87.22
51289;BME280;37372;52.294;5.152;2023-04-25T02:45:49;101171.50;;;4.08;88.21
51289;BME280;37372;52.294;5.152;2023-04-25T02:48:21;101187.16;;;4.06;87.47
51289;BME280;37372;52.294;5.152;2023-04-25T02:50:48;101182.38;;;4.08;88.08
51289;BME280;37372;52.294;5.152;2023-04-25T02:53:24;101184.72;;;4.12;87.73
51289;BME280;37372;52.294;5.152;2023-04-25T02:59:06;101192.50;;;4.15;86.97
51289;BME280;37372;52.294;5.152;2023-04-25T03:01:34;101194.69;;;4.19;86.31
51289;BME280;37372;52.294;5.152;2023-04-25T03:03:59;101187.72;;;4.17;86.01
51289;BME280;37372;52.294;5.152;2023-04-25T03:06:25;101190.56;;;4.23;86.66
51289;BME280;37372;52.294;5.152;2023-04-25T03:08:54;101183.22;;;4.32;86.34
51289;BME280;37372;52.294;5.152;2023-04-25T03:11:20;101186.06;;;4.39;86.02
51289;BME280;37372;52.294;5.152;2023-04-25T03:13:54;101200.09;;;4.42;85.74
51289;BME280;37372;52.294;5.152;2023-04-25T03:16:23;101196.72;;;4.40;85.68
51289;BME280;37372;52.294;5.152;2023-04-25T03:18:48;101199.75;;;4.45;86.15
51289;BME280;37372;52.294;5.152;2023-04-25T03:21:16;101203.78;;;4.49;85.32
51289;BME280;37372;52.294;5.152;2023-04-25T03:23:41;101208.47;;;4.55;85.62
51289;BME280;37372;52.294;5.152;2023-04-25T03:26:25;101205.66;;;4.49;85.75
51289;BME280;37372;52.294;5.152;2023-04-25T03:28:53;101212.31;;;4.46;85.69
51289;BME280;37372;52.294;5.152;2023-04-25T03:31:19;101210.63;;;4.45;86.23
51289;BME280;37372;52.294;5.152;2023-04-25T03:33:48;101213.69;;;4.42;85.82
51289;BME280;37372;52.294;5.152;2023-04-25T03:36:13;101217.25;;;4.43;85.61
51289;BME280;37372;52.294;5.152;2023-04-25T03:38:39;101211.50;;;4.38;84.67
51289;BME280;37372;52.294;5.152;2023-04-25T03:41:06;101215.38;;;4.43;83.59
51289;BME280;37372;52.294;5.152;2023-04-25T03:43:35;101216.91;;;4.46;82.50
51289;BME280;37372;52.294;5.152;2023-04-25T03:46:00;101214.94;;;4.54;80.38
51289;BME280;37372;52.294;5.152;2023-04-25T03:48:27;101218.03;;;4.51;81.08
51289;BME280;37372;52.294;5.152;2023-04-25T03:50:53;101220.75;;;4.51;81.82
51289;BME280;37372;52.294;5.152;2023-04-25T03:53:19;101221.59;;;4.52;80.67
51289;BME280;37372;52.294;5.152;2023-04-25T03:55:48;101225.16;;;4.52;78.52
51289;BME280;37372;52.294;5.152;2023-04-25T03:58:27;101218.03;;;4.51;80.62
51289;BME280;37372;52.294;5.152;2023-04-25T04:01:00;101215.50;;;4.50;80.41
51289;BME280;37372;52.294;5.152;2023-04-25T04:03:34;101223.81;;;4.48;80.68
51289;BME280;37372;52.294;5.152;2023-04-25T04:06:05;101229.56;;;4.53;81.28
51289;BME280;37372;52.294;5.152;2023-04-25T04:08:37;101230.09;;;4.49;82.74
51289;BME280;37372;52.294;5.152;2023-04-25T04:11:05;101223.19;;;4.46;82.85
51289;BME280;37372;52.294;5.152;2023-04-25T04:13:43;101227.03;;;4.52;82.89
51289;BME280;37372;52.294;5.152;2023-04-25T04:16:08;101230.78;;;4.51;83.38
51289;BME280;37372;52.294;5.152;2023-04-25T04:18:34;101233.97;;;4.54;83.77
51289;BME280;37372;52.294;5.152;2023-04-25T04:21:13;101236.88;;;4.53;84.05
51289;BME280;37372;52.294;5.152;2023-04-25T04:23:38;101239.06;;;4.57;84.19
51289;BME280;37372;52.294;5.152;2023-04-25T04:26:04;101245.34;;;4.58;83.99
51289;BME280;37372;52.294;5.152;2023-04-25T04:28:30;101248.22;;;4.56;82.81
51289;BME280;37372;52.294;5.152;2023-04-25T04:31:06;101251.13;;;4.55;83.71
51289;BME280;37372;52.294;5.152;2023-04-25T04:33:33;101256.06;;;4.51;84.57
51289;BME280;37372;52.294;5.152;2023-04-25T04:36:05;101250.66;;;4.51;84.37
51289;BME280;37372;52.294;5.152;2023-04-25T04:38:33;101258.13;;;4.49;84.43
51289;BME280;37372;52.294;5.152;2023-04-25T04:41:12;101257.66;;;4.46;84.11
51289;BME280;37372;52.294;5.152;2023-04-25T04:43:54;101253.91;;;4.47;83.64
51289;BME280;37372;52.294;5.152;2023-04-25T04:46:26;101260.81;;;4.49;82.98
51289;BME280;37372;52.294;5.152;2023-04-25T04:49:08;101253.72;;;4.48;81.86
51289;BME280;37372;52.294;5.152;2023-04-25T04:54:40;101258.94;;;4.50;81.60
51289;BME280;37372;52.294;5.152;2023-04-25T04:57:06;101263.53;;;4.49;81.56
51289;BME280;37372;52.294;5.152;2023-04-25T04:59:43;101273.56;;;4.49;80.82
51289;BME280;37372;52.294;5.152;2023-04-25T05:02:08;101272.38;;;4.51;80.76
51289;BME280;37372;52.294;5.152;2023-04-25T05:04:43;101278.16;;;4.48;80.46
51289;BME280;37372;52.294;5.152;2023-04-25T05:07:08;101287.16;;;4.49;81.03
51289;BME280;37372;52.294;5.152;2023-04-25T05:09:58;101280.34;;;4.53;80.71
51289;BME280;37372;52.294;5.152;2023-04-25T05:12:42;101287.09;;;4.57;80.52
51289;BME280;37372;52.294;5.152;2023-04-25T05:15:07;101287.97;;;4.57;81.29
51289;BME280;37372;52.294;5.152;2023-04-25T05:17:57;101295.53;;;4.62;80.08
51289;BME280;37372;52.294;5.152;2023-04-25T05:20:23;101294.50;;;4.63;78.64
51289;BME280;37372;52.294;5.152;2023-04-25T05:22:48;101292.47;;;4.65;77.38
51289;BME280;37372;52.294;5.152;2023-04-25T05:25:44;101299.53;;;4.74;80.22
51289;BME280;37372;52.294;5.152;2023-04-25T05:28:19;101303.41;;;4.80;80.31
51289;BME280;37372;52.294;5.152;2023-04-25T05:30:45;101302.56;;;4.79;79.74
51289;BME280;37372;52.294;5.152;2023-04-25T05:33:18;101293.75;;;4.77;80.53
51289;BME280;37372;52.294;5.152;2023-04-25T05:35:53;101307.50;;;4.76;81.66
51289;BME280;37372;52.294;5.152;2023-04-25T05:38:18;101308.00;;;4.79;82.25
51289;BME280;37372;52.294;5.152;2023-04-25T05:40:44;101314.28;;;4.80;82.37
51289;BME280;37372;52.294;5.152;2023-04-25T05:43:09;101319.00;;;4.86;82.62
51289;BME280;37372;52.294;5.152;2023-04-25T05:45:40;101319.00;;;4.86;81.79
51289;BME280;37372;52.294;5.152;2023-04-25T05:48:06;101325.03;;;4.96;82.43
51289;BME280;37372;52.294;5.152;2023-04-25T05:50:31;101330.75;;;5.01;82.31
51289;BME280;37372;52.294;5.152;2023-04-25T05:52:57;101343.03;;;4.97;80.53
51289;BME280;37372;52.294;5.152;2023-04-25T05:55:53;101341.47;;;5.03;79.09
51289;BME280;37372;52.294;5.152;2023-04-25T05:58:37;101345.25;;;4.94;77.47
51289;BME280;37372;52.294;5.152;2023-04-25T06:01:08;101343.31;;;4.79;75.13
51289;BME280;37372;52.294;5.152;2023-04-25T06:03:34;101342.69;;;4.77;78.11
51289;BME280;37372;52.294;5.152;2023-04-25T06:06:04;101345.28;;;4.71;78.67
51289;BME280;37372;52.294;5.152;2023-04-25T06:11:09;101349.69;;;4.63;78.79
51289;BME280;37372;52.294;5.152;2023-04-25T06:14:08;101360.22;;;4.67;79.89
51289;BME280;37372;52.294;5.152;2023-04-25T06:16:55;101364.44;;;4.69;79.82
51289;BME280;37372;52.294;5.152;2023-04-25T06:19:25;101367.25;;;4.84;80.14
51289;BME280;37372;52.294;5.152;2023-04-25T06:22:01;101365.50;;;4.91;80.03
51289;BME280;37372;52.294;5.152;2023-04-25T06:24:35;101365.22;;;5.09;80.70
51289;BME280;37372;52.294;5.152;2023-04-25T06:27:01;101362.16;;;5.27;80.61
51289;BME280;37372;52.294;5.152;2023-04-25T06:29:47;101355.84;;;5.49;80.92
51289;BME280;37372;52.294;5.152;2023-04-25T06:32:16;101354.34;;;5.76;80.34
51289;BME280;37372;52.294;5.152;2023-04-25T06:34:44;101363.28;;;5.85;80.09
51289;BME280;37372;52.294;5.152;2023-04-25T06:37:33;101368.28;;;5.96;79.18
51289;BME280;37372;52.294;5.152;2023-04-25T06:40:16;101377.78;;;6.00;79.14
51289;BME280;37372;52.294;5.152;2023-04-25T06:42:56;101376.84;;;6.08;78.49
51289;BME280;37372;52.294;5.152;2023-04-25T06:45:21;101388.13;;;6.19;77.69
51289;BME280;37372;52.294;5.152;2023-04-25T06:47:57;101390.97;;;6.47;76.63
51289;BME280;37372;52.294;5.152;2023-04-25T06:50:26;101381.84;;;6.55;76.60
51289;BME280;37372;52.294;5.152;2023-04-25T06:53:00;101393.66;;;6.62;74.37
51289;BME280;37372;52.294;5.152;2023-04-25T06:55:27;101393.66;;;6.62;76.58
51289;BME280;37372;52.294;5.152;2023-04-25T06:57:55;101393.44;;;6.78;77.09
51289;BME280;37372;52.294;5.152;2023-04-25T07:01:07;101393.59;;;6.92;75.66
51289;BME280;37372;52.294;5.152;2023-04-25T07:03:40;101389.97;;;7.06;75.35
51289;BME280;37372;52.294;5.152;2023-04-25T07:06:05;101394.50;;;7.20;75.44
51289;BME280;37372;52.294;5.152;2023-04-25T07:08:43;101406.88;;;7.16;73.57
51289;BME280;37372;52.294;5.152;2023-04-25T07:11:08;101397.22;;;7.20;73.49
51289;BME280;37372;52.294;5.152;2023-04-25T07:13:57;101401.66;;;7.00;71.95
51289;BME280;37372;52.294;5.152;2023-04-25T07:16:40;101404.66;;;7.05;73.63
51289;BME280;37372;52.294;5.152;2023-04-25T07:19:05;101408.84;;;7.07;73.34
51289;BME280;37372;52.294;5.152;2023-04-25T07:21:31;101419.31;;;7.04;72.92
51289;BME280;37372;52.294;5.152;2023-04-25T07:24:07;101411.28;;;6.96;71.61
51289;BME280;37372;52.294;5.152;2023-04-25T07:26:58;101411.34;;;7.02;72.95
51289;BME280;37372;52.294;5.152;2023-04-25T07:29:42;101417.38;;;6.98;72.35
51289;BME280;37372;52.294;5.152;2023-04-25T07:32:39;101412.06;;;7.11;69.08
51289;BME280;37372;52.294;5.152;2023-04-25T07:35:05;101424.22;;;7.09;70.44
51289;BME280;37372;52.294;5.152;2023-04-25T07:37:35;101417.88;;;7.08;67.86
51289;BME280;37372;52.294;5.152;2023-04-25T07:43:11;101439.19;;;6.98;68.49
51289;BME280;37372;52.294;5.152;2023-04-25T07:45:40;101453.28;;;6.36;69.89
51289;BME280;37372;52.294;5.152;2023-04-25T07:48:08;101452.16;;;5.78;72.09
51289;BME280;37372;52.294;5.152;2023-04-25T07:53:18;101453.09;;;5.47;74.72
51289;BME280;37372;52.294;5.152;2023-04-25T07:55:44;101453.50;;;5.44;76.19
51289;BME280;37372;52.294;5.152;2023-04-25T07:58:15;101453.59;;;5.51;79.32
51289;BME280;37372;52.294;5.152;2023-04-25T08:00:40;101463.94;;;5.55;79.11
51289;BME280;37372;52.294;5.152;2023-04-25T08:03:15;101453.59;;;5.51;78.39
51289;BME280;37372;52.294;5.152;2023-04-25T08:05:47;101462.53;;;5.59;79.84
51289;BME280;37372;52.294;5.152;2023-04-25T08:08:15;101464.47;;;5.74;77.49
51289;BME280;37372;52.294;5.152;2023-04-25T08:11:05;101463.34;;;6.06;76.65
51289;BME280;37372;52.294;5.152;2023-04-25T08:13:31;101475.38;;;6.26;76.54
51289;BME280;37372;52.294;5.152;2023-04-25T08:16:05;101469.53;;;6.44;73.78
51289;BME280;37372;52.294;5.152;2023-04-25T08:18:31;101467.19;;;6.56;74.23
51289;BME280;37372;52.294;5.152;2023-04-25T08:23:37;101477.25;;;7.06;72.76
51289;BME280;37372;52.294;5.152;2023-04-25T08:26:29;101468.06;;;7.28;68.44
51289;BME280;37372;52.294;5.152;2023-04-25T08:28:58;101478.38;;;7.12;68.19
51289;BME280;37372;52.294;5.152;2023-04-25T08:31:23;101481.44;;;7.02;69.73
51289;BME280;37372;52.294;5.152;2023-04-25T08:33:56;101488.16;;;7.06;69.95
51289;BME280;37372;52.294;5.152;2023-04-25T08:36:25;101488.59;;;7.24;72.96
51289;BME280;37372;52.294;5.152;2023-04-25T08:42:24;101495.09;;;7.45;70.04
51289;BME280;37372;52.294;5.152;2023-04-25T08:44:50;101499.78;;;7.72;68.83
51289;BME280;37372;52.294;5.152;2023-04-25T08:47:22;101505.72;;;8.04;66.86
51289;BME280;37372;52.294;5.152;2023-04-25T08:49:54;101509.69;;;8.29;63.76
51289;BME280;37372;52.294;5.152;2023-04-25T08:52:37;101508.22;;;8.55;60.61
51289;BME280;37372;52.294;5.152;2023-04-25T08:55:06;101516.69;;;8.32;58.02
51289;BME280;37372;52.294;5.152;2023-04-25T08:57:54;101515.91;;;8.38;62.44
51289;BME280;37372;52.294;5.152;2023-04-25T09:00:30;101529.88;;;8.00;60.42
51289;BME280;37372;52.294;5.152;2023-04-25T09:02:58;101539.56;;;8.03;64.51
51289;BME280;37372;52.294;5.152;2023-04-25T09:05:40;101553.03;;;7.62;66.29
51289;BME280;37372;52.294;5.152;2023-04-25T09:08:27;101557.22;;;7.21;70.74
51289;BME280;37372;52.294;5.152;2023-04-25T09:11:01;101563.78;;;7.12;68.01
51289;BME280;37372;52.294;5.152;2023-04-25T09:13:27;101564.03;;;7.32;68.95
51289;BME280;37372;52.294;5.152;2023-04-25T09:16:11;101581.69;;;7.51;63.68
51289;BME280;37372;52.294;5.152;2023-04-25T09:19:06;101570.13;;;7.34;64.56
51289;BME280;37372;52.294;5.152;2023-04-25T09:21:35;101569.72;;;7.52;63.11
51289;BME280;37372;52.294;5.152;2023-04-25T09:24:10;101565.19;;;8.02;61.97
51289;BME280;37372;52.294;5.152;2023-04-25T09:26:43;101582.88;;;8.27;58.42
51289;BME280;37372;52.294;5.152;2023-04-25T09:29:09;101582.22;;;8.25;60.95
51289;BME280;37372;52.294;5.152;2023-04-25T09:31:37;101579.53;;;8.32;59.76
51289;BME280;37372;52.294;5.152;2023-04-25T09:34:08;101578.44;;;8.26;58.58
51289;BME280;37372;52.294;5.152;2023-04-25T09:36:37;101585.44;;;8.07;61.01
51289;BME280;37372;52.294;5.152;2023-04-25T09:42:34;101583.59;;;8.99;60.07
51289;BME280;37372;52.294;5.152;2023-04-25T09:45:00;101582.81;;;9.11;57.56
51289;BME280;37372;52.294;5.152;2023-04-25T09:47:55;101589.19;;;9.25;57.72
51289;BME280;37372;52.294;5.152;2023-04-25T09:50:24;101598.78;;;9.08;57.81
51289;BME280;37372;52.294;5.152;2023-04-25T09:56:42;101601.25;;;8.89;59.69
51289;BME280;37372;52.294;5.152;2023-04-25T09:59:23;101600.69;;;8.73;61.26
51289;BME280;37372;52.294;5.152;2023-04-25T10:01:49;101604.38;;;8.58;60.58
51289;BME280;37372;52.294;5.152;2023-04-25T10:04:24;101600.84;;;8.64;59.77
51289;BME280;37372;52.294;5.152;2023-04-25T10:06:55;101606.59;;;8.70;61.38
51289;BME280;37372;52.294;5.152;2023-04-25T10:09:37;101610.41;;;8.82;61.17
51289;BME280;37372;52.294;5.152;2023-04-25T10:12:14;101610.56;;;9.02;62.20
51289;BME280;37372;52.294;5.152;2023-04-25T10:14:44;101613.09;;;9.03;62.27
51289;BME280;37372;52.294;5.152;2023-04-25T10:17:29;101609.88;;;8.93;61.11
51289;BME280;37372;52.294;5.152;2023-04-25T10:19:55;101615.13;;;9.29;60.40
51289;BME280;37372;52.294;5.152;2023-04-25T10:22:42;101603.81;;;9.52;59.01
51289;BME280;37372;52.294;5.152;2023-04-25T10:25:10;101618.91;;;9.83;58.50
51289;BME280;37372;52.294;5.152;2023-04-25T10:27:36;101633.63;;;9.27;61.21
51289;BME280;37372;52.294;5.152;2023-04-25T10:30:27;101636.06;;;8.74;66.24
51289;BME280;37372;52.294;5.152;2023-04-25T10:32:55;101648.19;;;7.79;71.06
51289;BME280;37372;52.294;5.152;2023-04-25T10:35:40;101650.47;;;7.10;72.84
51289;BME280;37372;52.294;5.152;2023-04-25T10:38:11;101646.97;;;6.49;76.57
51289;BME280;37372;52.294;5.152;2023-04-25T10:41:17;101654.84;;;6.06;80.20
51289;BME280;37372;52.294;5.152;2023-04-25T10:43:45;101663.50;;;6.10;81.05
51289;BME280;37372;52.294;5.152;2023-04-25T10:46:23;101664.41;;;6.25;80.33
51289;BME280;37372;52.294;5.152;2023-04-25T10:48:55;101656.91;;;6.27;79.06
51289;BME280;37372;52.294;5.152;2023-04-25T10:51:36;101665.00;;;6.35;78.88
51289;BME280;37372;52.294;5.152;2023-04-25T10:54:07;101662.06;;;6.60;78.56
51289;BME280;37372;52.294;5.152;2023-04-25T10:56:33;101655.63;;;6.90;77.13
51289;BME280;37372;52.294;5.152;2023-04-25T10:59:12;101649.03;;;6.99;73.32
51289;BME280;37372;52.294;5.152;2023-04-25T11:01:40;101647.94;;;7.09;69.25
51289;BME280;37372;52.294;5.152;2023-04-25T11:04:29;101652.03;;;7.19;68.75
51289;BME280;37372;52.294;5.152;2023-04-25T11:10:04;101647.34;;;7.28;70.93
51289;BME280;37372;52.294;5.152;2023-04-25T11:12:36;101641.41;;;7.24;70.77
51289;BME280;37372;52.294;5.152;2023-04-25T11:15:05;101646.28;;;7.14;70.91
51289;BME280;37372;52.294;5.152;2023-04-25T11:17:35;101642.63;;;7.37;69.50
51289;BME280;37372;52.294;5.152;2023-04-25T11:20:00;101638.03;;;7.73;69.92
51289;BME280;37372;52.294;5.152;2023-04-25T11:22:31;101646.28;;;8.37;68.68
51289;BME280;37372;52.294;5.152;2023-04-25T11:24:56;101646.47;;;8.57;70.35
51289;BME280;37372;52.294;5.152;2023-04-25T11:27:33;101652.56;;;8.17;65.29
51289;BME280;37372;52.294;5.152;2023-04-25T11:30:15;101652.75;;;7.94;66.32
51289;BME280;37372;52.294;5.152;2023-04-25T11:32:41;101657.72;;;7.69;66.13
51289;BME280;37372;52.294;5.152;2023-04-25T11:35:09;101662.91;;;7.64;65.79
51289;BME280;37372;52.294;5.152;2023-04-25T11:37:40;101669.34;;;7.56;66.92
51289;BME280;37372;52.294;5.152;2023-04-25T11:40:10;101669.16;;;7.43;66.49
51289;BME280;37372;52.294;5.152;2023-04-25T11:42:39;101668.31;;;7.42;66.65
51289;BME280;37372;52.294;5.152;2023-04-25T11:45:28;101671.25;;;7.41;67.64
51289;BME280;37372;52.294;5.152;2023-04-25T11:47:59;101667.06;;;7.45;67.28
51289;BME280;37372;52.294;5.152;2023-04-25T11:50:29;101674.06;;;7.47;66.53
51289;BME280;37372;52.294;5.152;2023-04-25T11:52:57;101668.41;;;7.49;63.85
51289;BME280;37372;52.294;5.152;2023-04-25T11:55:22;101666.38;;;7.72;64.21
51289;BME280;37372;52.294;5.152;2023-04-25T11:57:50;101673.00;;;7.99;64.57
51289;BME280;37372;52.294;5.152;2023-04-25T12:00:21;101678.41;;;8.14;64.05
51289;BME280;37372;52.294;5.152;2023-04-25T12:02:54;101671.53;;;8.18;60.05
51289;BME280;37372;52.294;5.152;2023-04-25T12:05:30;101669.84;;;8.38;61.44
51289;BME280;37372;52.294;5.152;2023-04-25T12:11:25;101666.88;;;8.61;63.08
51289;BME280;37372;52.294;5.152;2023-04-25T12:14:04;101676.44;;;8.72;63.04
51289;BME280;37372;52.294;5.152;2023-04-25T12:16:46;101678.06;;;8.66;60.66
51289;BME280;37372;52.294;5.152;2023-04-25T12:19:17;101672.91;;;8.78;63.03
51289;BME280;37372;52.294;5.152;2023-04-25T12:21:46;101680.84;;;9.01;62.77
51289;BME280;37372;52.294;5.152;2023-04-25T12:24:15;101673.22;;;8.90;60.00
51289;BME280;37372;52.294;5.152;2023-04-25T12:27:04;101690.31;;;8.71;60.44
51289;BME280;37372;52.294;5.152;2023-04-25T12:29:49;101687.59;;;8.49;60.23
51289;BME280;37372;52.294;5.152;2023-04-25T12:32:16;101692.13;;;8.21;60.21
51289;BME280;37372;52.294;5.152;2023-04-25T12:34:45;101685.59;;;8.36;63.47
51289;BME280;37372;52.294;5.152;2023-04-25T12:37:30;101682.06;;;8.64;61.32
51289;BME280;37372;52.294;5.152;2023-04-25T12:40:06;101685.06;;;8.97;59.47
51289;BME280;37372;52.294;5.152;2023-04-25T12:42:36;101687.88;;;9.10;57.38
51289;BME280;37372;52.294;5.152;2023-04-25T12:45:01;101688.00;;;8.95;58.44
51289;BME280;37372;52.294;5.152;2023-04-25T12:47:27;101697.13;;;8.81;58.73
51289;BME280;37372;52.294;5.152;2023-04-25T12:49:53;101696.66;;;8.71;60.69
51289;BME280;37372;52.294;5.152;2023-04-25T12:52:19;101692.81;;;8.65;62.66
51289;BME280;37372;52.294;5.152;2023-04-25T12:54:49;101699.91;;;8.60;59.87
51289;BME280;37372;52.294;5.152;2023-04-25T12:57:14;101699.34;;;8.28;59.82
51289;BME280;37372;52.294;5.152;2023-04-25T13:02:52;101701.84;;;7.87;59.43
51289;BME280;37372;52.294;5.152;2023-04-25T13:05:18;101699.50;;;8.20;59.84
51289;BME280;37372;52.294;5.152;2023-04-25T13:07:45;101689.69;;;8.47;60.92
51289;BME280;37372;52.294;5.152;2023-04-25T13:10:12;101695.47;;;8.59;57.63
51289;BME280;37372;52.294;5.152;2023-04-25T13:12:37;101702.13;;;8.71;59.52
51289;BME280;37372;52.294;5.152;2023-04-25T13:15:03;101695.06;;;8.83;57.82
51289;BME280;37372;52.294;5.152;2023-04-25T13:17:28;101693.47;;;8.95;56.45
51289;BME280;37372;52.294;5.152;2023-04-25T13:19:55;101697.78;;;9.11;56.58
51289;BME280;37372;52.294;5.152;2023-04-25T13:22:43;101700.69;;;9.38;57.45
51289;BME280;37372;52.294;5.152;2023-04-25T13:25:11;101697.88;;;9.25;54.35
51289;BME280;37372;52.294;5.152;2023-04-25T13:27:37;101706.13;;;9.31;56.06
51289;BME280;37372;52.294;5.152;2023-04-25T13:30:06;101703.38;;;9.31;58.02
51289;BME280;37372;52.294;5.152;2023-04-25T13:32:38;101711.03;;;9.42;56.53
51289;BME280;37372;52.294;5.152;2023-04-25T13:35:09;101703.41;;;9.38;56.85
51289;BME280;37372;52.294;5.152;2023-04-25T13:37:42;101704.59;;;9.22;56.18
51289;BME280;37372;52.294;5.152;2023-04-25T13:40:11;101699.94;;;9.16;58.08
51289;BME280;37372;52.294;5.152;2023-04-25T13:42:38;101722.06;;;9.21;57.48
51289;BME280;37372;52.294;5.152;2023-04-25T13:45:05;101714.75;;;9.28;57.09
51289;BME280;37372;52.294;5.152;2023-04-25T13:47:30;101712.16;;;9.20;54.70
51289;BME280;37372;52.294;5.152;2023-04-25T13:50:08;101712.69;;;9.37;57.07
51289;BME280;37372;52.294;5.152;2023-04-25T13:52:37;101718.28;;;9.57;55.84
51289;BME280;37372;52.294;5.152;2023-04-25T13:55:04;101717.78;;;9.46;55.93
51289;BME280;37372;52.294;5.152;2023-04-25T13:57:35;101717.75;;;9.40;55.77
51289;BME280;37372;52.294;5.152;2023-04-25T14:00:11;101725.91;;;9.33;57.44
51289;BME280;37372;52.294;5.152;2023-04-25T14:02:38;101720.56;;;9.18;54.79